sensor_id;sensor_type;location;lat;lon;timestamp;P1;durP1;ratioP1;P2;durP2;ratioP2
45522;SDS011;31254;51.680;5.394;2022-10-16T00:01:37;7.03;;;2.40;;
45522;SDS011;31254;51.680;5.394;2022-10-16T00:04:04;7.32;;;2.10;;
45522;SDS011;31254;51.680;5.394;2022-10-16T00:06:31;5.70;;;2.45;;
45522;SDS011;31254;51.680;5.394;2022-10-16T00:08:58;8.95;;;2.60;;
45522;SDS011;31254;51.680;5.394;2022-10-16T00:11:27;7.13;;;2.30;;
45522;SDS011;31254;51.680;5.394;2022-10-16T00:13:57;5.28;;;2.70;;
45522;SDS011;31254;51.680;5.394;2022-10-16T00:16:25;8.23;;;2.70;;
45522;SDS011;31254;51.680;5.394;2022-10-16T00:18:53;5.90;;;2.65;;
45522;SDS011;31254;51.680;5.394;2022-10-16T00:21:22;5.30;;;2.75;;
45522;SDS011;31254;51.680;5.394;2022-10-16T00:23:54;6.10;;;2.50;;
45522;SDS011;31254;51.680;5.394;2022-10-16T00:26:22;4.57;;;2.60;;
45522;SDS011;31254;51.680;5.394;2022-10-16T00:28:50;4.10;;;2.17;;
45522;SDS011;31254;51.680;5.394;2022-10-16T00:31:18;8.13;;;2.55;;
45522;SDS011;31254;51.680;5.394;2022-10-16T00:33:47;5.38;;;2.28;;
45522;SDS011;31254;51.680;5.394;2022-10-16T00:36:15;4.57;;;2.47;;
45522;SDS011;31254;51.680;5.394;2022-10-16T00:38:44;6.15;;;2.45;;
45522;SDS011;31254;51.680;5.394;2022-10-16T00:41:14;6.03;;;2.50;;
45522;SDS011;31254;51.680;5.394;2022-10-16T00:43:44;7.03;;;2.90;;
45522;SDS011;31254;51.680;5.394;2022-10-16T00:51:31;6.75;;;2.60;;
45522;SDS011;31254;51.680;5.394;2022-10-16T00:54:00;7.97;;;2.90;;
45522;SDS011;31254;51.680;5.394;2022-10-16T00:56:32;6.68;;;3.08;;
45522;SDS011;31254;51.680;5.394;2022-10-16T00:59:01;8.98;;;3.33;;
45522;SDS011;31254;51.680;5.394;2022-10-16T01:01:31;10.00;;;3.28;;
45522;SDS011;31254;51.680;5.394;2022-10-16T01:03:58;6.22;;;3.00;;
45522;SDS011;31254;51.680;5.394;2022-10-16T01:06:46;6.45;;;2.83;;
45522;SDS011;31254;51.680;5.394;2022-10-16T01:14:59;5.50;;;2.53;;
45522;SDS011;31254;51.680;5.394;2022-10-16T01:17:40;6.78;;;2.67;;
45522;SDS011;31254;51.680;5.394;2022-10-16T01:20:31;4.38;;;2.10;;
45522;SDS011;31254;51.680;5.394;2022-10-16T01:23:15;7.28;;;2.72;;
45522;SDS011;31254;51.680;5.394;2022-10-16T01:28:36;5.85;;;3.00;;
45522;SDS011;31254;51.680;5.394;2022-10-16T01:31:08;9.75;;;2.80;;
45522;SDS011;31254;51.680;5.394;2022-10-16T01:33:41;4.60;;;2.35;;
45522;SDS011;31254;51.680;5.394;2022-10-16T01:36:13;5.13;;;2.58;;
45522;SDS011;31254;51.680;5.394;2022-10-16T01:38:44;4.68;;;2.53;;
45522;SDS011;31254;51.680;5.394;2022-10-16T01:41:17;4.47;;;2.20;;
45522;SDS011;31254;51.680;5.394;2022-10-16T01:43:53;4.57;;;2.63;;
45522;SDS011;31254;51.680;5.394;2022-10-16T01:46:30;5.72;;;2.20;;
45522;SDS011;31254;51.680;5.394;2022-10-16T01:48:57;7.72;;;2.75;;
45522;SDS011;31254;51.680;5.394;2022-10-16T01:51:27;5.50;;;2.33;;
45522;SDS011;31254;51.680;5.394;2022-10-16T01:53:57;4.57;;;2.60;;
45522;SDS011;31254;51.680;5.394;2022-10-16T01:56:27;6.22;;;2.25;;
45522;SDS011;31254;51.680;5.394;2022-10-16T01:58:57;6.63;;;2.58;;
45522;SDS011;31254;51.680;5.394;2022-10-16T02:01:28;7.93;;;2.15;;
45522;SDS011;31254;51.680;5.394;2022-10-16T02:03:58;3.22;;;1.83;;
45522;SDS011;31254;51.680;5.394;2022-10-16T02:06:36;5.63;;;1.98;;
45522;SDS011;31254;51.680;5.394;2022-10-16T02:09:03;3.20;;;1.92;;
45522;SDS011;31254;51.680;5.394;2022-10-16T02:11:29;3.20;;;1.90;;
45522;SDS011;31254;51.680;5.394;2022-10-16T02:14:04;7.22;;;2.00;;
45522;SDS011;31254;51.680;5.394;2022-10-16T02:16:50;4.20;;;2.03;;
45522;SDS011;31254;51.680;5.394;2022-10-16T02:19:20;5.30;;;2.10;;
45522;SDS011;31254;51.680;5.394;2022-10-16T02:22:06;5.28;;;2.10;;
45522;SDS011;31254;51.680;5.394;2022-10-16T02:24:43;6.35;;;1.83;;
45522;SDS011;31254;51.680;5.394;2022-10-16T02:27:20;3.65;;;1.58;;
45522;SDS011;31254;51.680;5.394;2022-10-16T02:29:51;4.15;;;1.70;;
45522;SDS011;31254;51.680;5.394;2022-10-16T02:32:27;2.92;;;1.80;;
45522;SDS011;31254;51.680;5.394;2022-10-16T02:34:59;8.77;;;1.65;;
45522;SDS011;31254;51.680;5.394;2022-10-16T02:37:27;4.47;;;1.40;;
45522;SDS011;31254;51.680;5.394;2022-10-16T02:39:56;10.15;;;2.42;;
45522;SDS011;31254;51.680;5.394;2022-10-16T02:42:29;3.70;;;1.70;;
45522;SDS011;31254;51.680;5.394;2022-10-16T02:45:00;4.38;;;1.67;;
45522;SDS011;31254;51.680;5.394;2022-10-16T02:47:27;3.92;;;1.52;;
45522;SDS011;31254;51.680;5.394;2022-10-16T02:49:53;5.65;;;2.15;;
45522;SDS011;31254;51.680;5.394;2022-10-16T02:52:20;2.60;;;1.52;;
45522;SDS011;31254;51.680;5.394;2022-10-16T02:54:50;5.78;;;1.88;;
45522;SDS011;31254;51.680;5.394;2022-10-16T02:57:17;5.90;;;1.80;;
45522;SDS011;31254;51.680;5.394;2022-10-16T02:59:44;5.95;;;2.03;;
45522;SDS011;31254;51.680;5.394;2022-10-16T03:02:11;3.25;;;1.38;;
45522;SDS011;31254;51.680;5.394;2022-10-16T03:04:38;5.05;;;1.77;;
45522;SDS011;31254;51.680;5.394;2022-10-16T03:07:05;11.73;;;2.53;;
45522;SDS011;31254;51.680;5.394;2022-10-16T03:09:32;4.15;;;1.48;;
45522;SDS011;31254;51.680;5.394;2022-10-16T03:11:59;4.38;;;1.83;;
45522;SDS011;31254;51.680;5.394;2022-10-16T03:14:25;4.80;;;1.80;;
45522;SDS011;31254;51.680;5.394;2022-10-16T03:16:57;6.65;;;1.83;;
45522;SDS011;31254;51.680;5.394;2022-10-16T03:19:23;4.55;;;1.58;;
45522;SDS011;31254;51.680;5.394;2022-10-16T03:21:50;4.47;;;1.63;;
45522;SDS011;31254;51.680;5.394;2022-10-16T03:24:17;2.75;;;1.90;;
45522;SDS011;31254;51.680;5.394;2022-10-16T03:26:44;3.10;;;1.58;;
45522;SDS011;31254;51.680;5.394;2022-10-16T03:29:10;3.45;;;1.50;;
45522;SDS011;31254;51.680;5.394;2022-10-16T03:31:40;6.97;;;2.00;;
45522;SDS011;31254;51.680;5.394;2022-10-16T03:34:06;4.50;;;1.63;;
45522;SDS011;31254;51.680;5.394;2022-10-16T03:36:35;4.53;;;1.70;;
45522;SDS011;31254;51.680;5.394;2022-10-16T03:39:02;5.30;;;1.42;;
45522;SDS011;31254;51.680;5.394;2022-10-16T03:41:31;6.50;;;2.10;;
45522;SDS011;31254;51.680;5.394;2022-10-16T03:44:00;4.35;;;1.55;;
45522;SDS011;31254;51.680;5.394;2022-10-16T03:46:27;4.65;;;1.58;;
45522;SDS011;31254;51.680;5.394;2022-10-16T03:48:54;4.30;;;1.30;;
45522;SDS011;31254;51.680;5.394;2022-10-16T03:51:20;5.10;;;1.48;;
45522;SDS011;31254;51.680;5.394;2022-10-16T03:53:47;2.72;;;1.52;;
45522;SDS011;31254;51.680;5.394;2022-10-16T03:56:13;2.97;;;1.55;;
45522;SDS011;31254;51.680;5.394;2022-10-16T03:58:42;2.40;;;1.10;;
45522;SDS011;31254;51.680;5.394;2022-10-16T04:01:12;4.25;;;1.63;;
45522;SDS011;31254;51.680;5.394;2022-10-16T04:03:41;5.88;;;1.27;;
45522;SDS011;31254;51.680;5.394;2022-10-16T04:06:07;2.00;;;1.25;;
45522;SDS011;31254;51.680;5.394;2022-10-16T04:08:35;3.20;;;1.27;;
45522;SDS011;31254;51.680;5.394;2022-10-16T04:11:03;3.25;;;1.20;;
45522;SDS011;31254;51.680;5.394;2022-10-16T04:13:30;3.35;;;1.23;;
45522;SDS011;31254;51.680;5.394;2022-10-16T04:15:56;6.68;;;1.40;;
45522;SDS011;31254;51.680;5.394;2022-10-16T04:18:23;5.45;;;1.40;;
45522;SDS011;31254;51.680;5.394;2022-10-16T04:20:53;4.05;;;1.42;;
45522;SDS011;31254;51.680;5.394;2022-10-16T04:23:20;3.88;;;1.30;;
45522;SDS011;31254;51.680;5.394;2022-10-16T04:25:47;3.97;;;1.50;;
45522;SDS011;31254;51.680;5.394;2022-10-16T04:28:16;4.68;;;1.50;;
45522;SDS011;31254;51.680;5.394;2022-10-16T04:30:43;4.20;;;1.58;;
45522;SDS011;31254;51.680;5.394;2022-10-16T04:33:11;3.10;;;1.40;;
45522;SDS011;31254;51.680;5.394;2022-10-16T04:35:39;5.22;;;1.58;;
45522;SDS011;31254;51.680;5.394;2022-10-16T04:38:08;3.45;;;1.45;;
45522;SDS011;31254;51.680;5.394;2022-10-16T04:40:37;3.45;;;1.73;;
45522;SDS011;31254;51.680;5.394;2022-10-16T04:43:07;3.17;;;1.25;;
45522;SDS011;31254;51.680;5.394;2022-10-16T04:45:34;3.22;;;1.38;;
45522;SDS011;31254;51.680;5.394;2022-10-16T04:48:03;2.53;;;1.50;;
45522;SDS011;31254;51.680;5.394;2022-10-16T04:50:37;4.20;;;1.30;;
45522;SDS011;31254;51.680;5.394;2022-10-16T04:53:04;4.35;;;1.30;;
45522;SDS011;31254;51.680;5.394;2022-10-16T04:55:31;2.53;;;1.52;;
45522;SDS011;31254;51.680;5.394;2022-10-16T04:57:58;3.40;;;1.33;;
45522;SDS011;31254;51.680;5.394;2022-10-16T05:00:25;4.78;;;1.50;;
45522;SDS011;31254;51.680;5.394;2022-10-16T05:02:54;4.22;;;1.50;;
45522;SDS011;31254;51.680;5.394;2022-10-16T05:05:23;2.72;;;1.42;;
45522;SDS011;31254;51.680;5.394;2022-10-16T05:07:51;3.90;;;1.15;;
45522;SDS011;31254;51.680;5.394;2022-10-16T05:10:17;2.53;;;1.17;;
45522;SDS011;31254;51.680;5.394;2022-10-16T05:12:44;2.03;;;1.20;;
45522;SDS011;31254;51.680;5.394;2022-10-16T05:15:11;3.30;;;1.50;;
45522;SDS011;31254;51.680;5.394;2022-10-16T05:17:38;6.00;;;1.58;;
45522;SDS011;31254;51.680;5.394;2022-10-16T05:20:09;3.72;;;1.50;;
45522;SDS011;31254;51.680;5.394;2022-10-16T05:22:37;6.45;;;1.50;;
45522;SDS011;31254;51.680;5.394;2022-10-16T05:25:20;2.72;;;1.58;;
45522;SDS011;31254;51.680;5.394;2022-10-16T05:27:47;6.15;;;1.60;;
45522;SDS011;31254;51.680;5.394;2022-10-16T05:30:15;3.05;;;1.27;;
45522;SDS011;31254;51.680;5.394;2022-10-16T05:32:48;3.90;;;1.60;;
45522;SDS011;31254;51.680;5.394;2022-10-16T05:35:17;5.55;;;1.60;;
45522;SDS011;31254;51.680;5.394;2022-10-16T05:37:47;4.82;;;1.77;;
45522;SDS011;31254;51.680;5.394;2022-10-16T05:40:14;4.13;;;1.50;;
45522;SDS011;31254;51.680;5.394;2022-10-16T05:42:41;5.97;;;1.98;;
45522;SDS011;31254;51.680;5.394;2022-10-16T05:45:11;3.72;;;1.50;;
45522;SDS011;31254;51.680;5.394;2022-10-16T05:47:38;3.33;;;1.23;;
45522;SDS011;31254;51.680;5.394;2022-10-16T05:50:05;4.15;;;1.63;;
45522;SDS011;31254;51.680;5.394;2022-10-16T05:52:33;3.35;;;1.67;;
45522;SDS011;31254;51.680;5.394;2022-10-16T05:55:02;4.47;;;1.58;;
45522;SDS011;31254;51.680;5.394;2022-10-16T05:57:30;6.85;;;1.60;;
45522;SDS011;31254;51.680;5.394;2022-10-16T05:59:57;3.05;;;1.75;;
45522;SDS011;31254;51.680;5.394;2022-10-16T06:02:31;2.35;;;1.45;;
45522;SDS011;31254;51.680;5.394;2022-10-16T06:04:57;4.25;;;1.80;;
45522;SDS011;31254;51.680;5.394;2022-10-16T06:07:26;4.47;;;1.45;;
45522;SDS011;31254;51.680;5.394;2022-10-16T06:09:54;6.47;;;1.88;;
45522;SDS011;31254;51.680;5.394;2022-10-16T06:12:21;4.75;;;1.65;;
45522;SDS011;31254;51.680;5.394;2022-10-16T06:14:48;5.40;;;2.03;;
45522;SDS011;31254;51.680;5.394;2022-10-16T06:17:17;2.85;;;1.52;;
45522;SDS011;31254;51.680;5.394;2022-10-16T06:19:44;4.93;;;2.15;;
45522;SDS011;31254;51.680;5.394;2022-10-16T06:22:13;3.35;;;1.52;;
45522;SDS011;31254;51.680;5.394;2022-10-16T06:24:39;4.20;;;1.80;;
45522;SDS011;31254;51.680;5.394;2022-10-16T06:27:08;3.65;;;1.70;;
45522;SDS011;31254;51.680;5.394;2022-10-16T06:29:35;3.30;;;1.65;;
45522;SDS011;31254;51.680;5.394;2022-10-16T06:32:02;5.32;;;1.85;;
45522;SDS011;31254;51.680;5.394;2022-10-16T06:34:28;4.72;;;2.17;;
45522;SDS011;31254;51.680;5.394;2022-10-16T06:36:55;4.50;;;1.33;;
45522;SDS011;31254;51.680;5.394;2022-10-16T06:39:22;2.63;;;1.52;;
45522;SDS011;31254;51.680;5.394;2022-10-16T06:41:49;6.45;;;1.80;;
45522;SDS011;31254;51.680;5.394;2022-10-16T06:44:16;4.50;;;1.98;;
45522;SDS011;31254;51.680;5.394;2022-10-16T06:46:47;4.10;;;1.70;;
45522;SDS011;31254;51.680;5.394;2022-10-16T06:49:16;3.30;;;1.65;;
45522;SDS011;31254;51.680;5.394;2022-10-16T06:51:50;4.25;;;1.60;;
45522;SDS011;31254;51.680;5.394;2022-10-16T06:54:16;3.42;;;1.52;;
45522;SDS011;31254;51.680;5.394;2022-10-16T06:56:44;4.13;;;1.75;;
45522;SDS011;31254;51.680;5.394;2022-10-16T06:59:10;3.47;;;1.73;;
45522;SDS011;31254;51.680;5.394;2022-10-16T07:01:37;5.18;;;1.95;;
45522;SDS011;31254;51.680;5.394;2022-10-16T07:04:04;5.22;;;1.80;;
45522;SDS011;31254;51.680;5.394;2022-10-16T07:06:32;5.25;;;1.90;;
45522;SDS011;31254;51.680;5.394;2022-10-16T07:09:01;3.78;;;1.58;;
45522;SDS011;31254;51.680;5.394;2022-10-16T07:11:32;3.95;;;1.80;;
45522;SDS011;31254;51.680;5.394;2022-10-16T07:13:59;4.50;;;2.13;;
45522;SDS011;31254;51.680;5.394;2022-10-16T07:16:27;6.38;;;2.10;;
45522;SDS011;31254;51.680;5.394;2022-10-16T07:18:56;9.50;;;1.92;;
45522;SDS011;31254;51.680;5.394;2022-10-16T07:21:27;3.17;;;2.10;;
45522;SDS011;31254;51.680;5.394;2022-10-16T07:23:57;5.40;;;2.00;;
45522;SDS011;31254;51.680;5.394;2022-10-16T07:26:28;3.58;;;1.77;;
45522;SDS011;31254;51.680;5.394;2022-10-16T07:28:57;2.97;;;1.55;;
45522;SDS011;31254;51.680;5.394;2022-10-16T07:31:24;6.07;;;1.65;;
45522;SDS011;31254;51.680;5.394;2022-10-16T07:33:51;4.25;;;2.25;;
45522;SDS011;31254;51.680;5.394;2022-10-16T07:36:19;7.22;;;2.15;;
45522;SDS011;31254;51.680;5.394;2022-10-16T07:38:46;3.75;;;1.73;;
45522;SDS011;31254;51.680;5.394;2022-10-16T07:41:14;5.07;;;2.00;;
45522;SDS011;31254;51.680;5.394;2022-10-16T07:43:46;3.60;;;1.70;;
45522;SDS011;31254;51.680;5.394;2022-10-16T07:46:14;3.35;;;1.65;;
45522;SDS011;31254;51.680;5.394;2022-10-16T07:48:43;3.67;;;1.77;;
45522;SDS011;31254;51.680;5.394;2022-10-16T07:51:13;5.13;;;1.50;;
45522;SDS011;31254;51.680;5.394;2022-10-16T07:53:42;4.20;;;1.50;;
45522;SDS011;31254;51.680;5.394;2022-10-16T07:56:09;3.50;;;1.52;;
45522;SDS011;31254;51.680;5.394;2022-10-16T07:58:38;4.57;;;1.75;;
45522;SDS011;31254;51.680;5.394;2022-10-16T08:01:08;6.88;;;1.90;;
45522;SDS011;31254;51.680;5.394;2022-10-16T08:03:37;5.97;;;1.58;;
45522;SDS011;31254;51.680;5.394;2022-10-16T08:06:04;3.40;;;1.55;;
45522;SDS011;31254;51.680;5.394;2022-10-16T08:08:31;4.95;;;1.67;;
45522;SDS011;31254;51.680;5.394;2022-10-16T08:11:01;3.13;;;1.35;;
45522;SDS011;31254;51.680;5.394;2022-10-16T08:13:30;6.72;;;1.65;;
45522;SDS011;31254;51.680;5.394;2022-10-16T08:15:57;5.38;;;1.65;;
45522;SDS011;31254;51.680;5.394;2022-10-16T08:18:24;9.00;;;1.73;;
45522;SDS011;31254;51.680;5.394;2022-10-16T08:20:57;8.85;;;1.45;;
45522;SDS011;31254;51.680;5.394;2022-10-16T08:23:26;6.82;;;1.60;;
45522;SDS011;31254;51.680;5.394;2022-10-16T08:25:54;8.18;;;2.28;;
45522;SDS011;31254;51.680;5.394;2022-10-16T08:28:23;7.40;;;1.50;;
45522;SDS011;31254;51.680;5.394;2022-10-16T08:30:50;8.50;;;1.83;;
45522;SDS011;31254;51.680;5.394;2022-10-16T08:33:17;4.63;;;1.70;;
45522;SDS011;31254;51.680;5.394;2022-10-16T08:35:53;8.18;;;1.90;;
45522;SDS011;31254;51.680;5.394;2022-10-16T08:38:20;6.63;;;1.70;;
45522;SDS011;31254;51.680;5.394;2022-10-16T08:40:47;5.72;;;2.15;;
45522;SDS011;31254;51.680;5.394;2022-10-16T08:49:01;2.13;;;1.35;;
45522;SDS011;31254;51.680;5.394;2022-10-16T08:51:29;4.32;;;1.50;;
45522;SDS011;31254;51.680;5.394;2022-10-16T08:53:59;8.68;;;1.60;;
45522;SDS011;31254;51.680;5.394;2022-10-16T08:56:31;7.35;;;1.48;;
45522;SDS011;31254;51.680;5.394;2022-10-16T08:59:00;5.57;;;1.73;;
45522;SDS011;31254;51.680;5.394;2022-10-16T09:01:38;4.55;;;1.45;;
45522;SDS011;31254;51.680;5.394;2022-10-16T09:07:16;6.22;;;1.70;;
45522;SDS011;31254;51.680;5.394;2022-10-16T09:12:40;6.13;;;1.42;;
45522;SDS011;31254;51.680;5.394;2022-10-16T09:15:32;9.85;;;1.40;;
45522;SDS011;31254;51.680;5.394;2022-10-16T09:20:59;8.23;;;1.60;;
45522;SDS011;31254;51.680;5.394;2022-10-16T09:23:35;8.65;;;1.80;;
45522;SDS011;31254;51.680;5.394;2022-10-16T09:26:04;9.55;;;1.90;;
45522;SDS011;31254;51.680;5.394;2022-10-16T09:28:35;8.13;;;1.63;;
45522;SDS011;31254;51.680;5.394;2022-10-16T09:31:02;9.40;;;1.52;;
45522;SDS011;31254;51.680;5.394;2022-10-16T09:33:33;5.65;;;1.50;;
45522;SDS011;31254;51.680;5.394;2022-10-16T09:36:03;7.68;;;1.40;;
45522;SDS011;31254;51.680;5.394;2022-10-16T09:38:35;8.05;;;1.73;;
45522;SDS011;31254;51.680;5.394;2022-10-16T09:41:13;7.55;;;1.85;;
45522;SDS011;31254;51.680;5.394;2022-10-16T09:43:52;5.43;;;1.30;;
45522;SDS011;31254;51.680;5.394;2022-10-16T09:49:02;5.47;;;1.40;;
45522;SDS011;31254;51.680;5.394;2022-10-16T09:51:45;9.38;;;2.40;;
45522;SDS011;31254;51.680;5.394;2022-10-16T09:54:15;9.23;;;1.67;;
45522;SDS011;31254;51.680;5.394;2022-10-16T09:56:44;9.60;;;1.42;;
45522;SDS011;31254;51.680;5.394;2022-10-16T09:59:19;5.95;;;1.30;;
45522;SDS011;31254;51.680;5.394;2022-10-16T10:01:51;8.73;;;1.27;;
45522;SDS011;31254;51.680;5.394;2022-10-16T10:04:19;8.00;;;1.35;;
45522;SDS011;31254;51.680;5.394;2022-10-16T10:06:48;5.43;;;1.52;;
45522;SDS011;31254;51.680;5.394;2022-10-16T10:09:20;7.07;;;1.55;;
45522;SDS011;31254;51.680;5.394;2022-10-16T10:11:48;10.75;;;1.52;;
45522;SDS011;31254;51.680;5.394;2022-10-16T10:19:46;10.20;;;1.65;;
45522;SDS011;31254;51.680;5.394;2022-10-16T10:25:22;16.55;;;1.70;;
45522;SDS011;31254;51.680;5.394;2022-10-16T10:33:48;7.25;;;1.52;;
45522;SDS011;31254;51.680;5.394;2022-10-16T10:36:38;11.10;;;1.58;;
45522;SDS011;31254;51.680;5.394;2022-10-16T10:39:12;12.65;;;1.77;;
45522;SDS011;31254;51.680;5.394;2022-10-16T10:41:51;11.90;;;1.50;;
45522;SDS011;31254;51.680;5.394;2022-10-16T10:49:57;8.23;;;1.35;;
45522;SDS011;31254;51.680;5.394;2022-10-16T10:52:34;10.10;;;1.73;;
45522;SDS011;31254;51.680;5.394;2022-10-16T10:58:15;9.27;;;1.65;;
45522;SDS011;31254;51.680;5.394;2022-10-16T11:00:50;14.85;;;1.60;;
45522;SDS011;31254;51.680;5.394;2022-10-16T11:03:33;8.48;;;1.30;;
45522;SDS011;31254;51.680;5.394;2022-10-16T11:06:08;17.55;;;1.63;;
45522;SDS011;31254;51.680;5.394;2022-10-16T11:08:48;7.32;;;1.30;;
45522;SDS011;31254;51.680;5.394;2022-10-16T11:11:29;13.73;;;1.90;;
45522;SDS011;31254;51.680;5.394;2022-10-16T11:14:03;11.98;;;1.70;;
45522;SDS011;31254;51.680;5.394;2022-10-16T11:22:29;8.63;;;1.25;;
45522;SDS011;31254;51.680;5.394;2022-10-16T11:27:40;9.23;;;1.58;;
45522;SDS011;31254;51.680;5.394;2022-10-16T11:30:30;7.28;;;1.30;;
45522;SDS011;31254;51.680;5.394;2022-10-16T11:35:43;8.68;;;1.48;;
45522;SDS011;31254;51.680;5.394;2022-10-16T11:38:20;9.90;;;1.27;;
45522;SDS011;31254;51.680;5.394;2022-10-16T11:41:01;6.95;;;1.20;;
45522;SDS011;31254;51.680;5.394;2022-10-16T11:43:41;11.82;;;1.92;;
45522;SDS011;31254;51.680;5.394;2022-10-16T11:46:17;12.98;;;2.00;;
45522;SDS011;31254;51.680;5.394;2022-10-16T11:57:02;10.50;;;1.80;;
45522;SDS011;31254;51.680;5.394;2022-10-16T11:59:43;11.43;;;2.10;;
45522;SDS011;31254;51.680;5.394;2022-10-16T12:02:26;13.32;;;1.52;;
45522;SDS011;31254;51.680;5.394;2022-10-16T12:10:29;10.77;;;1.40;;
45522;SDS011;31254;51.680;5.394;2022-10-16T12:16:05;10.55;;;2.20;;
45522;SDS011;31254;51.680;5.394;2022-10-16T12:18:35;10.68;;;1.80;;
45522;SDS011;31254;51.680;5.394;2022-10-16T12:21:02;10.18;;;1.65;;
45522;SDS011;31254;51.680;5.394;2022-10-16T12:23:36;5.93;;;1.13;;
45522;SDS011;31254;51.680;5.394;2022-10-16T12:26:05;11.07;;;1.27;;
45522;SDS011;31254;51.680;5.394;2022-10-16T12:28:34;8.25;;;1.92;;
45522;SDS011;31254;51.680;5.394;2022-10-16T12:31:06;6.20;;;1.45;;
45522;SDS011;31254;51.680;5.394;2022-10-16T12:33:36;12.07;;;1.80;;
45522;SDS011;31254;51.680;5.394;2022-10-16T12:36:13;14.95;;;2.00;;
45522;SDS011;31254;51.680;5.394;2022-10-16T12:38:52;8.73;;;1.55;;
45522;SDS011;31254;51.680;5.394;2022-10-16T12:41:27;11.20;;;1.73;;
45522;SDS011;31254;51.680;5.394;2022-10-16T12:43:54;6.57;;;1.58;;
45522;SDS011;31254;51.680;5.394;2022-10-16T12:46:43;6.88;;;1.42;;
45522;SDS011;31254;51.680;5.394;2022-10-16T12:51:38;10.50;;;1.63;;
45522;SDS011;31254;51.680;5.394;2022-10-16T12:54:17;14.38;;;1.60;;
45522;SDS011;31254;51.680;5.394;2022-10-16T13:02:56;11.88;;;1.40;;
45522;SDS011;31254;51.680;5.394;2022-10-16T13:19:27;9.25;;;1.63;;
45522;SDS011;31254;51.680;5.394;2022-10-16T13:24:59;10.27;;;1.20;;
45522;SDS011;31254;51.680;5.394;2022-10-16T13:27:50;12.52;;;1.70;;
45522;SDS011;31254;51.680;5.394;2022-10-16T13:30:31;7.05;;;1.20;;
45522;SDS011;31254;51.680;5.394;2022-10-16T13:35:36;10.50;;;1.25;;
45522;SDS011;31254;51.680;5.394;2022-10-16T13:38:25;9.40;;;1.20;;
45522;SDS011;31254;51.680;5.394;2022-10-16T13:41:03;6.90;;;1.20;;
45522;SDS011;31254;51.680;5.394;2022-10-16T13:43:47;8.68;;;1.50;;
45522;SDS011;31254;51.680;5.394;2022-10-16T13:46:21;8.07;;;1.20;;
45522;SDS011;31254;51.680;5.394;2022-10-16T13:51:54;8.73;;;1.25;;
45522;SDS011;31254;51.680;5.394;2022-10-16T13:54:23;4.72;;;1.17;;
45522;SDS011;31254;51.680;5.394;2022-10-16T13:56:51;8.05;;;1.65;;
45522;SDS011;31254;51.680;5.394;2022-10-16T13:59:34;6.63;;;1.50;;
45522;SDS011;31254;51.680;5.394;2022-10-16T14:04:47;9.02;;;1.70;;
45522;SDS011;31254;51.680;5.394;2022-10-16T14:07:25;9.88;;;1.20;;
45522;SDS011;31254;51.680;5.394;2022-10-16T14:09:54;6.55;;;1.20;;
45522;SDS011;31254;51.680;5.394;2022-10-16T14:12:22;7.05;;;1.20;;
45522;SDS011;31254;51.680;5.394;2022-10-16T14:14:53;6.18;;;1.30;;
45522;SDS011;31254;51.680;5.394;2022-10-16T14:17:34;7.38;;;1.10;;
45522;SDS011;31254;51.680;5.394;2022-10-16T14:20:03;7.03;;;1.10;;
45522;SDS011;31254;51.680;5.394;2022-10-16T14:22:33;7.50;;;1.27;;
45522;SDS011;31254;51.680;5.394;2022-10-16T14:27:56;6.10;;;1.10;;
45522;SDS011;31254;51.680;5.394;2022-10-16T14:30:25;9.98;;;1.10;;
45522;SDS011;31254;51.680;5.394;2022-10-16T14:32:57;3.13;;;0.90;;
45522;SDS011;31254;51.680;5.394;2022-10-16T14:37:56;6.32;;;1.35;;
45522;SDS011;31254;51.680;5.394;2022-10-16T14:40:25;6.78;;;0.93;;
45522;SDS011;31254;51.680;5.394;2022-10-16T14:42:58;5.95;;;0.75;;
45522;SDS011;31254;51.680;5.394;2022-10-16T14:45:33;10.50;;;1.15;;
45522;SDS011;31254;51.680;5.394;2022-10-16T14:48:03;5.28;;;0.85;;
45522;SDS011;31254;51.680;5.394;2022-10-16T14:50:44;4.53;;;1.10;;
45522;SDS011;31254;51.680;5.394;2022-10-16T14:53:11;5.53;;;1.05;;
45522;SDS011;31254;51.680;5.394;2022-10-16T14:55:39;6.78;;;0.95;;
45522;SDS011;31254;51.680;5.394;2022-10-16T14:58:16;8.98;;;1.10;;
45522;SDS011;31254;51.680;5.394;2022-10-16T15:00:48;9.60;;;1.23;;
45522;SDS011;31254;51.680;5.394;2022-10-16T15:03:16;6.60;;;0.88;;
45522;SDS011;31254;51.680;5.394;2022-10-16T15:05:43;6.63;;;0.90;;
45522;SDS011;31254;51.680;5.394;2022-10-16T15:08:09;7.25;;;1.10;;
45522;SDS011;31254;51.680;5.394;2022-10-16T15:10:40;4.93;;;1.30;;
45522;SDS011;31254;51.680;5.394;2022-10-16T15:13:12;3.92;;;0.98;;
45522;SDS011;31254;51.680;5.394;2022-10-16T15:15:44;10.80;;;1.10;;
45522;SDS011;31254;51.680;5.394;2022-10-16T15:18:15;10.57;;;0.90;;
45522;SDS011;31254;51.680;5.394;2022-10-16T15:20:48;4.22;;;1.00;;
45522;SDS011;31254;51.680;5.394;2022-10-16T15:23:18;7.50;;;1.20;;
45522;SDS011;31254;51.680;5.394;2022-10-16T15:25:51;4.88;;;1.08;;
45522;SDS011;31254;51.680;5.394;2022-10-16T15:28:20;6.00;;;1.05;;
45522;SDS011;31254;51.680;5.394;2022-10-16T15:30:49;5.20;;;1.17;;
45522;SDS011;31254;51.680;5.394;2022-10-16T15:33:23;4.03;;;0.95;;
45522;SDS011;31254;51.680;5.394;2022-10-16T15:35:53;4.32;;;1.17;;
45522;SDS011;31254;51.680;5.394;2022-10-16T15:38:21;6.07;;;1.08;;
45522;SDS011;31254;51.680;5.394;2022-10-16T15:40:49;6.45;;;1.38;;
45522;SDS011;31254;51.680;5.394;2022-10-16T15:43:16;6.72;;;1.00;;
45522;SDS011;31254;51.680;5.394;2022-10-16T15:45:43;12.10;;;1.80;;
45522;SDS011;31254;51.680;5.394;2022-10-16T15:48:10;7.78;;;1.60;;
45522;SDS011;31254;51.680;5.394;2022-10-16T15:50:44;7.15;;;2.10;;
45522;SDS011;31254;51.680;5.394;2022-10-16T15:53:10;7.05;;;2.03;;
45522;SDS011;31254;51.680;5.394;2022-10-16T15:55:37;6.07;;;2.10;;
45522;SDS011;31254;51.680;5.394;2022-10-16T15:58:04;11.05;;;2.33;;
45522;SDS011;31254;51.680;5.394;2022-10-16T16:00:31;7.38;;;2.00;;
45522;SDS011;31254;51.680;5.394;2022-10-16T16:02:58;5.80;;;2.08;;
45522;SDS011;31254;51.680;5.394;2022-10-16T16:05:25;6.72;;;2.10;;
45522;SDS011;31254;51.680;5.394;2022-10-16T16:07:52;9.25;;;2.40;;
45522;SDS011;31254;51.680;5.394;2022-10-16T16:10:21;9.73;;;2.63;;
45522;SDS011;31254;51.680;5.394;2022-10-16T16:12:48;9.50;;;2.10;;
45522;SDS011;31254;51.680;5.394;2022-10-16T16:15:19;10.95;;;2.08;;
45522;SDS011;31254;51.680;5.394;2022-10-16T16:17:47;7.95;;;2.00;;
45522;SDS011;31254;51.680;5.394;2022-10-16T16:20:15;5.82;;;1.67;;
45522;SDS011;31254;51.680;5.394;2022-10-16T16:22:41;8.55;;;1.80;;
45522;SDS011;31254;51.680;5.394;2022-10-16T16:25:08;5.30;;;1.73;;
45522;SDS011;31254;51.680;5.394;2022-10-16T16:27:35;7.65;;;1.73;;
45522;SDS011;31254;51.680;5.394;2022-10-16T16:30:05;6.80;;;1.63;;
45522;SDS011;31254;51.680;5.394;2022-10-16T16:32:36;7.68;;;1.67;;
45522;SDS011;31254;51.680;5.394;2022-10-16T16:35:03;6.30;;;1.48;;
45522;SDS011;31254;51.680;5.394;2022-10-16T16:37:33;5.63;;;1.48;;
45522;SDS011;31254;51.680;5.394;2022-10-16T16:40:00;5.50;;;1.55;;
45522;SDS011;31254;51.680;5.394;2022-10-16T16:42:27;6.30;;;1.80;;
45522;SDS011;31254;51.680;5.394;2022-10-16T16:44:54;6.70;;;2.25;;
45522;SDS011;31254;51.680;5.394;2022-10-16T16:47:21;6.00;;;1.55;;
45522;SDS011;31254;51.680;5.394;2022-10-16T16:49:49;7.38;;;1.85;;
45522;SDS011;31254;51.680;5.394;2022-10-16T16:52:16;6.85;;;2.58;;
45522;SDS011;31254;51.680;5.394;2022-10-16T16:54:43;8.48;;;2.53;;
45522;SDS011;31254;51.680;5.394;2022-10-16T16:57:18;6.68;;;2.63;;
45522;SDS011;31254;51.680;5.394;2022-10-16T16:59:46;8.15;;;3.25;;
45522;SDS011;31254;51.680;5.394;2022-10-16T17:02:13;8.60;;;3.53;;
45522;SDS011;31254;51.680;5.394;2022-10-16T17:04:42;9.07;;;4.10;;
45522;SDS011;31254;51.680;5.394;2022-10-16T17:07:08;12.32;;;4.05;;